createdAt,value
2018-11-23T00:03:03.822Z,102279.09
2018-11-23T00:06:08.248Z,102276.76
2018-11-23T00:09:12.655Z,102274.86
2018-11-23T00:12:17.124Z,102277.89
2018-11-23T00:15:23.234Z,102271.67
2018-11-23T00:18:27.688Z,102276.06
2018-11-23T00:21:32.137Z,102275.34
2018-11-23T00:24:36.534Z,102273.52
2018-11-23T00:27:41.227Z,102272.18
2018-11-23T00:30:45.663Z,102268.16
2018-11-23T00:33:50.102Z,102275.34
2018-11-23T00:36:54.524Z,102274.00
2018-11-23T00:39:58.967Z,102274.73
2018-11-23T00:43:03.323Z,102277.41
2018-11-23T00:46:08.003Z,102271.05
2018-11-23T00:49:12.465Z,102270.17
2018-11-23T00:52:17.107Z,102262.72
2018-11-23T00:55:22.315Z,102261.38
2018-11-23T00:58:26.705Z,102266.22
2018-11-23T01:01:35.230Z,102263.81
2018-11-23T01:04:39.718Z,102265.74
2018-11-23T01:07:44.717Z,102260.86
2018-11-23T01:10:49.097Z,102258.91
2018-11-23T01:13:54.448Z,102253.67
2018-11-23T01:16:58.848Z,102254.16
2018-11-23T01:20:03.319Z,102251.34
2018-11-23T01:23:07.722Z,102252.55
2018-11-23T01:26:12.168Z,102253.89
2018-11-23T01:29:16.578Z,102247.91
2018-11-23T01:32:21.124Z,102255.69
2018-11-23T01:35:25.541Z,102250.80
2018-11-23T01:38:29.971Z,102244.82
2018-11-23T01:41:34.414Z,102240.80
2018-11-23T01:44:44.039Z,102240.19
2018-11-23T01:47:48.542Z,102238.36
2018-11-23T01:50:53.003Z,102237.30
2018-11-23T01:53:57.422Z,102238.12
2018-11-23T01:57:01.792Z,102224.58
2018-11-23T02:00:07.678Z,102234.34
2018-11-23T02:03:12.098Z,102228.97
2018-11-23T02:06:16.490Z,102232.86
2018-11-23T02:09:20.943Z,102226.02
2018-11-23T02:12:25.396Z,102221.14
2018-11-23T02:15:29.858Z,102222.48
2018-11-23T02:18:34.323Z,102220.66
2018-11-23T02:21:38.689Z,102212.09
2018-11-23T02:24:43.173Z,102216.36
2018-11-23T02:27:47.606Z,102211.34
2018-11-23T02:30:52.585Z,102205.63
2018-11-23T02:33:56.943Z,102206.84
2018-11-23T02:37:01.429Z,102201.95
2018-11-23T02:40:06.083Z,102201.61
2018-11-23T02:43:10.527Z,102194.91
2018-11-23T02:46:14.913Z,102192.22
2018-11-23T02:49:19.374Z,102193.42
2018-11-23T02:52:23.898Z,102197.66
2018-11-23T02:55:28.281Z,102194.49
2018-11-23T02:58:32.721Z,102197.66
2018-11-23T03:01:37.139Z,102193.88
2018-11-23T03:04:41.507Z,102190.81
2018-11-23T03:07:45.923Z,102183.77
2018-11-23T03:10:50.343Z,102184.73
2018-11-23T03:13:54.779Z,102182.19
2018-11-23T03:16:59.183Z,102181.56
2018-11-23T03:20:03.626Z,102182.19
2018-11-23T03:23:08.082Z,102172.80
2018-11-23T03:26:12.602Z,102174.52
2018-11-23T03:29:16.973Z,102168.87
2018-11-23T03:32:21.387Z,102162.79
2018-11-23T03:35:25.870Z,102161.73
2018-11-23T03:38:30.298Z,102160.25
2018-11-23T03:41:34.688Z,102161.59
2018-11-23T03:44:39.061Z,102156.22
2018-11-23T03:47:44.155Z,102163.92
2018-11-23T03:50:48.681Z,102167.67
2018-11-23T03:53:53.102Z,102159.83
2018-11-23T03:56:57.420Z,102173.38
2018-11-23T04:00:01.841Z,102166.05
2018-11-23T04:03:06.809Z,102171.90
2018-11-23T04:06:11.757Z,102168.73
2018-11-23T04:09:23.668Z,102163.38
2018-11-23T04:12:28.034Z,102166.39
2018-11-23T04:15:32.406Z,102172.63
2018-11-23T04:18:37.981Z,102164.30
2018-11-23T04:21:42.604Z,102169.38
2018-11-23T04:24:47.208Z,102166.56
2018-11-23T04:27:51.654Z,102166.22
2018-11-23T04:30:56.238Z,102160.48
2018-11-23T04:34:00.963Z,102162.33
2018-11-23T04:37:05.052Z,102163.30
2018-11-23T04:40:11.360Z,102160.61
2018-11-23T04:43:15.704Z,102155.77
2018-11-23T04:46:20.077Z,102152.84
2018-11-23T04:49:24.462Z,102154.56
2018-11-23T04:52:28.843Z,102152.09
2018-11-23T04:55:33.169Z,102152.71
2018-11-23T04:58:37.581Z,102154.19
2018-11-23T05:01:41.960Z,102154.84
2018-11-23T05:04:46.309Z,102154.84
2018-11-23T05:07:50.702Z,102157.73
2018-11-23T05:10:55.026Z,102154.19
2018-11-23T05:13:59.367Z,102158.49
2018-11-23T05:17:03.771Z,102151.44
2018-11-23T05:20:09.650Z,102156.80
2018-11-23T05:23:14.029Z,102157.66
2018-11-23T05:26:18.386Z,102159.20
2018-11-23T05:29:22.733Z,102159.41
2018-11-23T05:32:27.085Z,102151.09
2018-11-23T05:35:31.409Z,102156.25
2018-11-23T05:38:35.778Z,102154.56
2018-11-23T05:41:40.140Z,102154.56
2018-11-23T05:44:44.513Z,102157.73
2018-11-23T05:47:48.879Z,102154.05
2018-11-23T05:50:53.258Z,102148.69
2018-11-23T05:53:57.614Z,102151.74
2018-11-23T05:57:01.969Z,102143.18
2018-11-23T06:00:14.282Z,102151.61
2018-11-23T06:03:18.630Z,102148.34
2018-11-23T06:06:22.966Z,102141.78
2018-11-23T06:09:27.309Z,102132.97
2018-11-23T06:12:31.655Z,102133.80
2018-11-23T06:15:35.990Z,102131.63
2018-11-23T06:18:40.363Z,102132.59
2018-11-23T06:21:44.693Z,102135.27
2018-11-23T06:24:49.078Z,102136.27
2018-11-23T06:27:53.964Z,102137.27
2018-11-23T06:30:58.307Z,102126.82
2018-11-23T06:34:02.650Z,102134.01
2018-11-23T06:37:07.003Z,102138.99
2018-11-23T06:40:11.454Z,102139.38
2018-11-23T06:43:15.851Z,102136.69
2018-11-23T06:46:20.191Z,102138.37
2018-11-23T06:49:24.527Z,102137.03
2018-11-23T06:52:28.882Z,102148.97
2018-11-23T06:55:33.219Z,102143.46
2018-11-23T06:58:37.579Z,102142.98
2018-11-23T07:01:41.866Z,102137.61
2018-11-23T07:04:46.183Z,102145.31
2018-11-23T07:07:50.486Z,102143.73
2018-11-23T07:10:59.178Z,102138.23
2018-11-23T07:14:04.032Z,102149.83
2018-11-23T07:17:07.902Z,102135.27
2018-11-23T07:20:13.898Z,102143.56
2018-11-23T07:23:18.428Z,102149.61
2018-11-23T07:26:22.755Z,102142.28
2018-11-23T07:29:27.156Z,102142.28
2018-11-23T07:32:31.480Z,102136.20
2018-11-23T07:35:35.786Z,102146.23
2018-11-23T07:38:40.091Z,102149.47
2018-11-23T07:42:01.332Z,102149.33
2018-11-23T07:45:07.162Z,102151.19
2018-11-23T07:48:11.626Z,102140.08
2018-11-23T07:51:15.954Z,102143.48
2018-11-23T07:54:20.350Z,102142.14
2018-11-23T07:57:24.721Z,102141.03
2018-11-23T08:00:29.166Z,102138.34
2018-11-23T08:03:33.503Z,102135.67
2018-11-23T08:06:37.806Z,102137.41
2018-11-23T08:09:42.581Z,102129.36
2018-11-23T08:12:48.509Z,102129.73
2018-11-23T08:15:52.834Z,102124.86
2018-11-23T08:18:57.140Z,102129.94
2018-11-23T08:22:01.435Z,102131.00
2018-11-23T08:25:06.544Z,102125.01
2018-11-23T08:28:10.827Z,102125.49
2018-11-23T08:31:15.141Z,102116.33
2018-11-23T08:34:19.412Z,102119.36
2018-11-23T08:37:23.662Z,102123.58
2018-11-23T08:40:28.624Z,102119.41
2018-11-23T08:43:33.162Z,102121.47
2018-11-23T08:46:37.497Z,102115.96
2018-11-23T08:49:41.823Z,102116.45
2018-11-23T08:52:46.116Z,102115.34
2018-11-23T08:55:50.406Z,102116.02
2018-11-23T08:58:54.713Z,102111.66
2018-11-23T09:01:59.058Z,102111.03
2018-11-23T09:05:03.432Z,102098.80
2018-11-23T09:08:07.785Z,102093.44
2018-11-23T09:11:12.078Z,102093.63
2018-11-23T09:14:16.355Z,102091.80
2018-11-23T09:17:20.658Z,102090.80
2018-11-23T09:20:25.874Z,102093.49
2018-11-23T09:23:30.136Z,102093.15
2018-11-23T09:26:35.279Z,102093.30
2018-11-23T09:29:39.602Z,102095.49
2018-11-23T09:32:44.398Z,102092.81
2018-11-23T09:35:48.694Z,102098.17
2018-11-23T09:38:53.142Z,102094.97
2018-11-23T09:41:57.432Z,102085.58
2018-11-23T09:45:01.703Z,102079.44
2018-11-23T09:48:07.276Z,102081.50
2018-11-23T09:51:11.764Z,102081.69
2018-11-23T09:54:16.075Z,102088.74
2018-11-23T09:57:20.400Z,102077.03
2018-11-23T10:00:27.810Z,102078.86
2018-11-23T10:03:32.149Z,102077.03
2018-11-23T10:06:36.463Z,102084.46
2018-11-23T10:09:40.824Z,102079.92
2018-11-23T10:12:45.174Z,102081.11
2018-11-23T10:15:49.518Z,102080.06
2018-11-23T10:18:53.826Z,102073.98
2018-11-23T10:21:58.173Z,102074.69
2018-11-23T10:25:02.571Z,102073.98
2018-11-23T10:28:06.935Z,102073.64
2018-11-23T10:31:11.283Z,102069.47
2018-11-23T10:34:15.608Z,102070.52
2018-11-23T10:37:19.958Z,102067.35
2018-11-23T10:40:25.763Z,102069.17
2018-11-23T10:43:30.106Z,102068.55
2018-11-23T10:46:34.421Z,102062.98
2018-11-23T10:49:38.751Z,102061.27
2018-11-23T10:52:43.089Z,102059.30
2018-11-23T10:55:47.424Z,102056.47
2018-11-23T10:58:51.896Z,102056.32
2018-11-23T11:02:01.508Z,102053.97
2018-11-23T11:05:12.528Z,102059.34
2018-11-23T11:08:16.861Z,102051.09
2018-11-23T11:11:21.348Z,102046.92
2018-11-23T11:14:25.676Z,102040.84
2018-11-23T11:17:30.016Z,102035.47
2018-11-23T11:20:34.324Z,102033.64
2018-11-23T11:23:38.626Z,102033.16
2018-11-23T11:26:42.914Z,102021.75
2018-11-23T11:29:47.247Z,102027.50
2018-11-23T11:32:51.602Z,102024.30
2018-11-23T11:35:55.955Z,102011.53
2018-11-23T11:39:00.246Z,102013.36
2018-11-23T11:42:04.554Z,102010.67
2018-11-23T11:45:12.166Z,101998.59
2018-11-23T11:48:16.475Z,101996.06
2018-11-23T11:51:20.795Z,101994.72
2018-11-23T11:54:25.145Z,101990.20
2018-11-23T11:57:29.454Z,101991.88
2018-11-23T12:00:33.799Z,101993.22
2018-11-23T12:03:38.117Z,101991.03
2018-11-23T12:06:42.532Z,101990.88
2018-11-23T12:09:49.068Z,101986.85
2018-11-23T12:12:53.544Z,101989.77
2018-11-23T12:15:57.923Z,101979.66
2018-11-23T12:19:02.243Z,101979.47
2018-11-23T12:22:06.599Z,101976.07
2018-11-23T12:25:11.459Z,101978.27
2018-11-23T12:28:15.786Z,101973.23
2018-11-23T12:31:20.126Z,101968.72
2018-11-23T12:34:24.472Z,101966.72
2018-11-23T12:37:28.771Z,101970.74
2018-11-23T12:40:33.099Z,101957.17
2018-11-23T12:43:37.416Z,101956.34
2018-11-23T12:46:41.800Z,101953.30
2018-11-23T12:49:46.281Z,101950.98
2018-11-23T12:52:50.683Z,101950.31
2018-11-23T12:55:55.245Z,101945.61
2018-11-23T12:58:59.619Z,101945.23
2018-11-23T13:02:04.030Z,101939.34
2018-11-23T13:05:08.419Z,101939.34
2018-11-23T13:08:12.826Z,101932.97
2018-11-23T13:11:17.317Z,101934.31
2018-11-23T13:14:21.740Z,101926.25
2018-11-23T13:17:26.119Z,101929.98
2018-11-23T13:20:30.453Z,101928.34
2018-11-23T13:23:34.824Z,101917.30
2018-11-23T13:26:39.228Z,101919.50
2018-11-23T13:29:44.267Z,101914.95
2018-11-23T13:32:48.743Z,101917.52
2018-11-23T13:35:53.162Z,101905.07
2018-11-23T13:38:57.592Z,101903.69
2018-11-23T13:42:01.980Z,101905.67
2018-11-23T13:45:07.915Z,101904.96
2018-11-23T13:48:12.283Z,101906.30
2018-11-23T13:51:16.733Z,101901.94
2018-11-23T13:54:21.161Z,101905.82
2018-11-23T13:57:25.685Z,101899.44
2018-11-23T14:00:30.825Z,101894.45
2018-11-23T14:03:35.203Z,101896.12
2018-11-23T14:06:39.647Z,101901.19
2018-11-23T14:09:44.007Z,101894.33
2018-11-23T14:12:48.583Z,101890.94
2018-11-23T14:15:52.962Z,101893.63
2018-11-23T14:18:57.399Z,101891.80
2018-11-23T14:22:01.816Z,101897.39
2018-11-23T14:25:06.607Z,101886.64
2018-11-23T14:28:11.011Z,101897.09
2018-11-23T14:31:15.428Z,101900.26
2018-11-23T14:34:19.819Z,101896.38
2018-11-23T14:37:24.246Z,101895.67
2018-11-23T14:40:28.724Z,101894.33
2018-11-23T14:43:33.128Z,101897.39
2018-11-23T14:46:37.556Z,101890.30
2018-11-23T14:49:41.960Z,101889.18
2018-11-23T14:52:47.771Z,101888.51
2018-11-23T14:55:52.208Z,101883.14
2018-11-23T14:58:56.603Z,101876.80
2018-11-23T15:02:01.012Z,101878.96
2018-11-23T15:05:06.748Z,101869.71
2018-11-23T15:08:11.972Z,101872.70
2018-11-23T15:11:16.487Z,101868.34
2018-11-23T15:14:20.802Z,101875.53
2018-11-23T15:17:25.072Z,101876.88
2018-11-23T15:20:33.546Z,101870.38
2018-11-23T15:23:37.835Z,101872.77
2018-11-23T15:26:42.179Z,101864.71
2018-11-23T15:29:46.462Z,101868.06
2018-11-23T15:32:51.294Z,101870.27
2018-11-23T15:35:55.627Z,101865.23
2018-11-23T15:39:00.007Z,101866.94
2018-11-23T15:42:04.347Z,101858.73
2018-11-23T15:45:13.042Z,101859.06
2018-11-23T15:48:17.398Z,101857.23
2018-11-23T15:51:21.720Z,101848.17
2018-11-23T15:54:26.096Z,101847.32
2018-11-23T15:57:30.493Z,101843.41
2018-11-23T16:00:36.216Z,101841.67
2018-11-23T16:03:40.610Z,101837.94
2018-11-23T16:06:45.012Z,101843.95
2018-11-23T16:09:49.434Z,101841.08
2018-11-23T16:12:55.345Z,101839.41
2018-11-23T16:15:59.746Z,101837.69
2018-11-23T16:19:04.234Z,101842.42
2018-11-23T16:22:08.703Z,101838.73
2018-11-23T16:25:13.349Z,101837.09
2018-11-23T16:28:17.788Z,101828.39
2018-11-23T16:31:22.232Z,101825.07
2018-11-23T16:34:26.686Z,101812.83
2018-11-23T16:37:31.090Z,101820.55
2018-11-23T16:40:37.489Z,101821.38
2018-11-23T16:43:41.912Z,101815.03
2018-11-23T16:46:46.354Z,101814.36
2018-11-23T16:49:51.186Z,101808.50
2018-11-23T16:53:01.547Z,101808.02
2018-11-23T16:56:06.463Z,101807.49
2018-11-23T16:59:10.849Z,101801.63
2018-11-23T17:02:15.346Z,101805.17
2018-11-23T17:05:21.364Z,101802.34
2018-11-23T17:08:26.044Z,101803.68
2018-11-23T17:11:30.580Z,101804.17
2018-11-23T17:14:35.101Z,101797.94
2018-11-23T17:17:39.671Z,101803.68
2018-11-23T17:20:44.178Z,101800.99
2018-11-23T17:23:48.601Z,101803.16
2018-11-23T17:26:53.250Z,101804.17
2018-11-23T17:29:57.795Z,101804.50
2018-11-23T17:33:02.373Z,101803.53
2018-11-23T17:36:06.968Z,101801.17
2018-11-23T17:39:11.495Z,101804.20
2018-11-23T17:42:15.924Z,101800.69
2018-11-23T17:45:24.409Z,101806.55
2018-11-23T17:48:28.873Z,101802.52
2018-11-23T17:51:33.263Z,101808.22
2018-11-23T17:54:37.679Z,101805.54
2018-11-23T17:57:42.688Z,101811.98
2018-11-23T18:00:47.094Z,101805.59
2018-11-23T18:03:51.515Z,101801.91
2018-11-23T18:06:55.913Z,101802.27
2018-11-23T18:10:00.353Z,101799.43
2018-11-23T18:13:05.147Z,101795.41
2018-11-23T18:16:09.575Z,101793.36
2018-11-23T18:19:13.948Z,101792.66
2018-11-23T18:22:18.375Z,101788.78
2018-11-23T18:25:26.086Z,101787.44
2018-11-23T18:28:30.532Z,101783.08
2018-11-23T18:31:34.939Z,101785.76
2018-11-23T18:34:39.380Z,101779.53
2018-11-23T18:37:43.792Z,101782.59
2018-11-23T18:40:48.163Z,101781.73
2018-11-23T18:43:52.591Z,101778.68
2018-11-23T18:46:56.976Z,101788.75
2018-11-23T18:50:01.508Z,101783.17
2018-11-23T18:53:06.044Z,101780.48
2018-11-23T18:56:10.583Z,101779.59
2018-11-23T18:59:15.019Z,101774.38
2018-11-23T19:02:19.460Z,101772.55
2018-11-23T19:05:26.922Z,101762.61
2018-11-23T19:08:31.367Z,101765.14
2018-11-23T19:11:35.792Z,101767.67
2018-11-23T19:14:40.260Z,101760.95
2018-11-23T19:17:44.671Z,101761.33
2018-11-23T19:20:49.120Z,101759.61
2018-11-23T19:23:53.620Z,101758.27
2018-11-23T19:26:58.054Z,101750.58
2018-11-23T19:30:02.432Z,101749.23
2018-11-23T19:33:06.837Z,101752.08
2018-11-23T19:36:11.227Z,101751.55
2018-11-23T19:39:15.663Z,101748.72
2018-11-23T19:42:20.047Z,101744.36
2018-11-23T19:45:24.437Z,101742.52
2018-11-23T19:48:28.855Z,101739.14
2018-11-23T19:51:33.198Z,101733.06
2018-11-23T19:54:37.589Z,101732.58
2018-11-23T19:57:41.999Z,101727.00
2018-11-23T20:00:46.382Z,101724.31
2018-11-23T20:03:50.699Z,101729.56
2018-11-23T20:06:55.128Z,101722.33
2018-11-23T20:09:59.487Z,101724.52
2018-11-23T20:13:03.924Z,101719.80
2018-11-23T20:16:08.298Z,101717.97
2018-11-23T20:19:12.749Z,101716.95
2018-11-23T20:22:17.136Z,101709.27
2018-11-23T20:25:21.936Z,101701.55
2018-11-23T20:28:26.290Z,101701.06
2018-11-23T20:31:30.628Z,101701.39
2018-11-23T20:34:35.003Z,101699.72
2018-11-23T20:37:39.376Z,101698.86
2018-11-23T20:40:43.778Z,101704.72
2018-11-23T20:43:48.116Z,101706.92
2018-11-23T20:46:52.456Z,101700.69
2018-11-23T20:49:56.792Z,101705.58
2018-11-23T20:53:01.179Z,101707.07
2018-11-23T20:56:05.548Z,101703.53
2018-11-23T20:59:09.941Z,101697.34
2018-11-23T21:02:14.376Z,101687.42
2018-11-23T21:05:20.525Z,101688.77
2018-11-23T21:08:24.902Z,101696.33
2018-11-23T21:11:29.263Z,101696.33
2018-11-23T21:14:33.587Z,101689.28
2018-11-23T21:17:37.916Z,101681.08
2018-11-23T21:20:42.207Z,101676.19
2018-11-23T21:23:46.534Z,101677.87
2018-11-23T21:26:50.866Z,101679.21
2018-11-23T21:29:55.232Z,101675.19
2018-11-23T21:32:59.645Z,101673.02
2018-11-23T21:36:03.991Z,101666.95
2018-11-23T21:39:13.723Z,101664.42
2018-11-23T21:42:15.149Z,101663.41
2018-11-23T21:45:20.685Z,101657.19
2018-11-23T21:48:25.004Z,101657.39
2018-11-23T21:51:29.318Z,101656.39
2018-11-23T21:54:33.640Z,101657.73
2018-11-23T21:57:37.964Z,101657.23
2018-11-23T22:00:42.329Z,101655.41
2018-11-23T22:03:46.827Z,101658.58
2018-11-23T22:06:52.385Z,101654.41
2018-11-23T22:09:56.707Z,101655.90
2018-11-23T22:13:01.071Z,101656.05
2018-11-23T22:16:06.305Z,101662.92
2018-11-23T22:19:10.650Z,101662.07
2018-11-23T22:22:14.993Z,101658.05
2018-11-23T22:25:20.850Z,101653.04
2018-11-23T22:28:25.184Z,101649.83
2018-11-23T22:31:29.666Z,101645.95
2018-11-23T22:34:34.052Z,101646.97
2018-11-23T22:37:38.396Z,101650.47
2018-11-23T22:40:42.744Z,101643.27
2018-11-23T22:43:47.075Z,101644.98
2018-11-23T22:46:51.454Z,101637.20
2018-11-23T22:49:55.790Z,101633.34
2018-11-23T22:53:00.155Z,101627.14
2018-11-23T22:56:04.703Z,101618.93
2018-11-23T22:59:09.020Z,101620.92
2018-11-23T23:02:13.367Z,101617.75
2018-11-23T23:05:18.169Z,101617.23
2018-11-23T23:08:22.470Z,101610.67
2018-11-23T23:11:26.767Z,101604.97
2018-11-23T23:14:31.105Z,101606.31
2018-11-23T23:17:35.465Z,101606.31
2018-11-23T23:20:39.853Z,101596.22
2018-11-23T23:23:44.192Z,101592.50
2018-11-23T23:26:48.545Z,101594.70
2018-11-23T23:29:52.863Z,101593.69
2018-11-23T23:32:57.228Z,101586.16
2018-11-23T23:36:01.577Z,101585.84
2018-11-23T23:39:08.760Z,101576.61
2018-11-23T23:42:13.047Z,101575.92
2018-11-23T23:45:19.475Z,101570.06
2018-11-23T23:48:23.832Z,101570.92
2018-11-23T23:51:28.199Z,101571.25
2018-11-23T23:54:32.497Z,101572.75
2018-11-23T23:57:36.837Z,101570.56
